• Join FlightAware (Why Join?)
  • Login
  • US Flag 
10:34PM EDT


 

Airport Tracker/Info


-or-


 

Live Flight TrackerFlight Track Log ✈ N7260Q ✈ 10-Nov-2013 ✈ 28J - KAPF

Flight Track Log - Related Links

Times and Time Zones

All times are in EST time to prevent confusion due to time zone crossing. See the N7260Q flight status page for this flight to view local times or setup timezone preferences in your user account.

Time Position Orientation Groundspeed Altitude Reporting Facility
EST Latitude Longitude Course Direction KTS MPH feet Rate Location/Type
04:16PM 29.6561 -81.7789 250° West 147 169 2,000  Level Jacksonville Center
04:17PM 29.6461 -81.8100 250° West 136 157 2,000 180 Level Jacksonville Center
04:18PM 29.6381 -81.8556 259° West 133 153 2,400 540 Climbing Jacksonville Center
04:19PM 29.6383 -81.8914 271° West 110 127 3,100 660 Climbing Jacksonville Center
04:20PM 29.6281 -81.9225 249° West 100 115 3,900 600 Climbing Jacksonville Center
04:21PM 29.6011 -81.9253 185° South 100 115 4,500 540 Climbing Jacksonville Center
04:22PM 29.5697 -81.9256 180° South 112 129 5,000 480 Climbing Jacksonville Center
04:23PM 29.5383 -81.9258 180° South 113 130 5,500 480 Climbing Jacksonville Center
04:24PM 29.5050 -81.9261 180° South 120 138 6,000 420 Climbing Jacksonville Center
04:25PM 29.4758 -81.9289 185° South 123 142 6,400 480 Climbing Jacksonville Center
04:26PM 29.4425 -81.9411 198° South 113 130 7,000 480 Climbing Jacksonville Center
04:27PM 29.4114 -81.9508 195° South 105 121 7,500 480 Climbing Jacksonville Center
04:28PM 29.3883 -81.9631 205° Southwest 102 117 8,000 420 Climbing Jacksonville Center
04:29PM 29.3614 -81.9728 197° South 98 113 8,400 480 Climbing Jacksonville Center
04:30PM 29.3364 -81.9803 195° South 98 113 9,000 240 Climbing Jacksonville Center
04:31PM 29.3050 -81.9875 191° South 115 132 9,000  Level Jacksonville Center
04:32PM 29.2614 -82.0000 194° South 147 169 9,000  Level Jacksonville Center
04:33PM 29.2217 -82.0097 192° South 146 168 9,000  Level Jacksonville Center
04:34PM 29.1822 -82.0197 192° South 143 165 9,000  Level Jacksonville Center
04:35PM 29.1406 -82.0297 192° South 142 163 9,000  Level Jacksonville Center
04:36PM 29.1008 -82.0347 186° South 139 160 9,000  Level Jacksonville Center
04:37PM 29.0633 -82.0444 193° South 139 160 9,000  Level Jacksonville Center
04:38PM 29.0258 -82.0519 190° South 137 158 9,000  Level Jacksonville Center
04:39PM 28.9903 -82.0594 190° South 139 160 9,000  Level Jacksonville Center
04:40PM 28.9508 -82.0692 192° South 142 163 9,000  Level Jacksonville Center
04:41PM 28.9133 -82.0742 187° South 139 160 9,000  Level Jacksonville Center
04:42PM 28.8717 -82.0842 192° South 139 160 9,000  Level Jacksonville Center
04:43PM 28.8319 -82.0939 192° South 139 160 9,000  Level Jacksonville Center
04:45PM 28.7500 -82.1000 184° South 140 161 9,000 -60 Level Tampa TRACON
04:46PM 28.7167 -82.1167 204° Southwest 142 163 8,900 -60 Descending Tampa TRACON
04:47PM 28.6833 -82.1333 204° Southwest 140 161 8,900  Level Tampa TRACON
04:48PM 28.6500 -82.1333 180° South 141 162 8,900  Level Tampa TRACON
04:49PM 28.6000 -82.1333 180° South 152 175 8,900  Level Tampa TRACON
04:50PM 28.5667 -82.1167 156° South 149 171 8,900  Level Tampa TRACON
04:51PM 28.5167 -82.1167 180° South 145 167 8,900  Level Tampa TRACON
04:52PM 28.4833 -82.1000 156° South 144 166 9,000  Climbing Tampa TRACON
04:53PM 28.4500 -82.1000 180° South 142 163 8,900 -60 Descending Tampa TRACON
04:54PM 28.4000 -82.0833 164° South 139 160 8,900  Level Tampa TRACON
04:55PM 28.3667 -82.0833 180° South 139 160 9,000  Climbing Tampa TRACON
04:56PM 28.3333 -82.0833 180° South 135 155 9,000  Level Tampa TRACON
04:57PM 28.3000 -82.0667 156° South 139 160 9,000  Level Tampa TRACON
04:58PM 28.2500 -82.0667 180° South 142 163 9,000  Level Tampa TRACON
04:59PM 28.2167 -82.0667 180° South 143 165 9,000  Level Tampa TRACON
05:00PM 28.1833 -82.0500 156° South 141 162 9,000  Level Tampa TRACON
05:01PM 28.1333 -82.0500 180° South 138 159 9,000  Level Tampa TRACON
05:03PM 28.0758 -82.0333 166° South 90 104 9,000  Level Miami Center
05:04PM 28.0386 -82.0269 171° South 129 148 9,000  Level Miami Center
05:05PM 27.9992 -82.0203 172° South 143 165 9,000  Level Miami Center
05:06PM 27.9600 -82.0114 169° South 148 170 9,000  Level Miami Center
05:07PM 27.9225 -82.0050 171° South 143 165 9,000  Level Miami Center
05:08PM 27.8831 -81.9986 172° South 143 165 9,000  Level Miami Center
05:09PM 27.8458 -81.9922 171° South 143 165 9,100  Climbing Miami Center
05:10PM 27.8022 -81.9856 172° South 143 165 9,100  Level Miami Center
05:11PM 27.7650 -81.9769 168° South 138 159 9,100  Level Miami Center
05:12PM 27.7253 -81.9822 187° South 143 165 9,100  Level Miami Center
05:13PM 27.6875 -81.9850 184° South 143 165 9,100 -240 Level Miami Center
05:14PM 27.6478 -81.9858 181° South 143 165 8,700 -480 Descending Miami Center
05:15PM 27.6019 -81.9883 183° South 148 170 8,200 -480 Descending Miami Center
05:16PM 27.5603 -81.9864 178° South 148 170 7,800 -480 Descending Miami Center
05:17PM 27.5161 -81.9914 186° South 155 178 7,300 -360 Descending Miami Center
05:18PM 27.4744 -81.9897 178° South 160 184 7,100 -120 Descending Miami Center
05:19PM 27.4328 -81.9878 178° South 160 184 7,100  Level Miami Center
05:20PM 27.3953 -81.9883 181° South 155 178 7,100  Level Miami Center
05:21PM 27.3556 -81.9892 181° South 155 178 7,100  Level Miami Center
05:22PM 27.3158 -81.9897 181° South 149 171 7,100  Level Miami Center
05:23PM 27.2761 -81.9903 181° South 149 171 7,100 -60 Level Miami Center
05:24PM 27.2367 -81.9908 181° South 143 165 7,000 -60 Descending Miami Center
05:25PM 27.1969 -81.9914 181° South 143 165 7,000  Level Miami Center
05:26PM 27.1572 -81.9919 181° South 143 165 7,000 -120 Level Miami Center
05:27PM 27.1175 -81.9903 178° South 143 165 6,800 -420 Descending Miami Center
05:28PM 27.0739 -81.9906 180° South 148 170 6,200 -600 Descending Miami Center
05:30PM 27.0072 -81.9875 178° South  Level FlightAware Approximate
05:37PM 26.7479 -81.9372 166° South  Level FlightAware Approximate
05:38PM 26.7112 -81.9272 166° South  Level FlightAware Approximate
05:39PM 26.6745 -81.9172 166° South  Level FlightAware Approximate
05:40PM 26.6378 -81.9072 166° South  Level FlightAware Approximate
05:41PM 26.6012 -81.8972 166° South  Level FlightAware Approximate
05:42PM 26.5645 -81.8873 166° South  Level FlightAware Approximate
05:43PM 26.5281 -81.8760 163° South  Level FlightAware Approximate
05:44PM 26.4917 -81.8650 170° South  Level FlightAware Approximate
05:45PM 26.4545 -81.8576 170° South  Level FlightAware Approximate
05:46PM 26.4174 -81.8501 170° South  Level FlightAware Approximate
05:47PM 26.3812 -81.8382 163° South  Level FlightAware Approximate
05:48PM 26.3450 -81.8261 163° South  Level FlightAware Approximate
05:49PM 26.3088 -81.8140 163° South  Level FlightAware Approximate
05:50PM 26.2726 -81.8020 163° South  Level FlightAware Approximate
05:51PM 26.2365 -81.7899 163° South  Level FlightAware Approximate
05:52PM 26.2000 -81.7792 167° South  Level FlightAware Approximate
05:53PM 26.1632 -81.7700 167° South  Level FlightAware Approximate
05:54PM 26.1500 -81.7667 167° South  Level FlightAware Approximate
05:55PM 26.1524 -81.7756 167° South  Level Estimated
05:56PM 26.1524 -81.7756 167° South  Level Estimated
05:57PM 26.1524 -81.7756 167° South  Level Estimated
05:58PM 26.1524 -81.7756 167° South  Level Estimated
05:59PM 26.1524 -81.7756 167° South  Level Estimated
06:00PM 26.1524 -81.7756 167° South  Level Estimated
06:01PM 26.1524 -81.7756 167° South  Level Estimated
06:02PM 26.1524 -81.7756 167° South  Level Estimated
06:03PM 26.1524 -81.7756 167° South  Level Estimated
06:04PM 26.1524 -81.7756 167° South  Level Estimated
06:05PM 26.1524 -81.7756 167° South  Level Estimated
06:06PM 26.1524 -81.7756 167° South  Level Estimated
06:07PM 26.1524 -81.7756 167° South  Level Estimated
06:08PM 26.1524 -81.7756 167° South  Level Estimated
06:09PM 26.1524 -81.7756 167° South  Level Estimated